»·PEaware :: N222BA KSAC-KMRY

N222BA :: KSAC-KMRY

FLIGHT INFORMATION

Flight Status: Arrived
Operator: Privately registered:
United States
More flights under this callsign
Pilot: Mark E. (9441)
Aircraft: CIRRUS SR-22
(SR22)
More flights by this aircraft type
Origin: KSAC Sacramento Executive
United States
Destination: KMRY Monterey Peninsula
United States
More flights between these airports :: More routes between these airports
Route: +MOD V111 SNS
File this flight plan on PilotEdge
Remarks:
Altitude:
(Current/Filed)
7,000ft
Speed:
(Current/Filed)
175kts
Departed: 28-Aug-18 08:34 AM
Arrived: 28-Aug-18 09:31 AM
Distance/Time
Traveled:
117nm/0:57
Distance/Time
To Go:
Arrived

Flight Plot

Page will automatically refresh every two minutes.

Flight plan parsing failed; only flown route is shown


Map Options




Map Legend


Flown Route
Filed Route
Departure Airport
Arrival Airport
Navaid (VOR, NDB)
Fix

Horizontal Profiles

Position Reports

Time Latitude Longitude Heading Altitude Ground
Speed
28-Aug-18 08:18 38.516583 -121.497196 217 28ft 0kts
28-Aug-18 08:19 38.516583 -121.497196 217 28ft 0kts
28-Aug-18 08:25 38.514781 -121.499550 137 28ft 0kts
28-Aug-18 08:26 38.514781 -121.499550 137 28ft 0kts
28-Aug-18 08:27 38.514781 -121.499550 137 28ft 0kts
28-Aug-18 08:28 38.514781 -121.499550 137 28ft 0kts
28-Aug-18 08:29 38.514781 -121.499550 137 28ft 0kts
28-Aug-18 08:30 38.514781 -121.499550 137 28ft 0kts
28-Aug-18 08:31 38.514340 -121.498187 98 28ft 15kts
28-Aug-18 08:32 38.515026 -121.494242 33 28ft 20kts
28-Aug-18 08:33 38.519188 -121.490449 97 28ft 0kts
28-Aug-18 08:34 38.519010 -121.489657 127 28ft 12kts
28-Aug-18 08:35 38.504775 -121.502268 204 512ft 112kts
28-Aug-18 08:36 38.469859 -121.495388 163 1344ft 137kts
28-Aug-18 08:37 38.434433 -121.482251 163 2015ft 155kts
28-Aug-18 08:38 38.396160 -121.462210 151 2825ft 149kts
28-Aug-18 08:39 38.359764 -121.437645 152 3623ft 150kts
28-Aug-18 08:40 38.324484 -121.414233 152 4804ft 137kts
28-Aug-18 08:41 38.290696 -121.391845 152 5965ft 139kts
28-Aug-18 08:42 38.256879 -121.369462 152 7000ft 147kts
28-Aug-18 08:43 38.221177 -121.345876 152 6997ft 154kts
28-Aug-18 08:44 38.189855 -121.325222 152 7003ft 162kts
28-Aug-18 08:45 38.149581 -121.298690 152 7001ft 163kts
28-Aug-18 08:46 38.109344 -121.272212 152 7001ft 164kts
28-Aug-18 08:47 38.069151 -121.245796 152 7001ft 164kts
28-Aug-18 08:48 38.028921 -121.219388 152 7001ft 163kts
28-Aug-18 08:49 37.988502 -121.192890 152 7001ft 164kts
28-Aug-18 08:50 37.948757 -121.166865 152 7000ft 163kts
28-Aug-18 08:51 37.908302 -121.140409 152 7000ft 163kts
28-Aug-18 08:52 37.868106 -121.114154 152 7000ft 163kts
28-Aug-18 08:53 37.828063 -121.088032 152 7000ft 163kts
28-Aug-18 08:54 37.787613 -121.061676 152 7000ft 163kts
28-Aug-18 08:55 37.747347 -121.035474 152 7000ft 163kts
28-Aug-18 08:56 37.707002 -121.009251 152 7000ft 163kts
28-Aug-18 08:57 37.666994 -120.983280 152 6999ft 163kts
28-Aug-18 08:58 37.625902 -120.961206 189 6985ft 166kts
28-Aug-18 08:59 37.584747 -120.988066 205 6999ft 167kts
28-Aug-18 09:00 37.545238 -121.014876 205 6999ft 167kts
28-Aug-18 09:01 37.504518 -121.042469 205 6999ft 167kts
28-Aug-18 09:02 37.463792 -121.070032 205 6999ft 167kts
28-Aug-18 09:03 37.428059 -121.094183 205 7002ft 168kts
28-Aug-18 09:04 37.387093 -121.121841 205 7001ft 168kts
28-Aug-18 09:05 37.349433 -121.147238 205 7002ft 167kts
28-Aug-18 09:06 37.309376 -121.174219 205 7002ft 167kts
28-Aug-18 09:07 37.269226 -121.201311 207 7000ft 168kts
28-Aug-18 09:08 37.228894 -121.230190 205 7001ft 167kts
28-Aug-18 09:09 37.187902 -121.257620 204 7001ft 167kts
28-Aug-18 09:10 37.152258 -121.281389 204 7001ft 167kts
28-Aug-18 09:11 37.111240 -121.308706 204 7001ft 167kts
28-Aug-18 09:12 37.070312 -121.335929 204 7001ft 167kts
28-Aug-18 09:13 37.029271 -121.363195 204 7001ft 167kts
28-Aug-18 09:14 36.988246 -121.390417 204 7001ft 167kts
28-Aug-18 09:15 36.947280 -121.417564 204 7001ft 168kts
28-Aug-18 09:16 36.906182 -121.444766 204 7000ft 167kts
28-Aug-18 09:17 36.865000 -121.471993 204 7000ft 167kts
28-Aug-18 09:18 36.823923 -121.499114 204 6958ft 170kts
28-Aug-18 09:19 36.780484 -121.527675 205 6474ft 179kts
28-Aug-18 09:20 36.737188 -121.556199 205 6006ft 171kts
28-Aug-18 09:21 36.698494 -121.581796 204 5996ft 150kts
28-Aug-18 09:22 36.662886 -121.602687 174 5814ft 138kts
28-Aug-18 09:23 36.628731 -121.588663 161 5296ft 124kts
28-Aug-18 09:24 36.596809 -121.575290 161 5098ft 118kts
28-Aug-18 09:25 36.573854 -121.603543 247 4597ft 145kts
28-Aug-18 09:26 36.566348 -121.652017 272 3787ft 144kts
28-Aug-18 09:27 36.570388 -121.696814 271 3174ft 100kts
28-Aug-18 09:28 36.573706 -121.734624 271 2042ft 115kts
28-Aug-18 09:29 36.576950 -121.771468 271 1430ft 100kts
28-Aug-18 09:30 36.580025 -121.809766 269 1072ft 126kts
28-Aug-18 09:31 36.587348 -121.845290 285 259ft 49kts
28-Aug-18 09:32 36.588399 -121.850471 317 259ft 20kts

Navigation Log

Ident Type
Flight plan parsing failed, navigation log unavailable